sensor_id;sensor_type;location;lat;lon;timestamp;P1;durP1;ratioP1;P2;durP2;ratioP2
7160;SDS011;3622;53.576;9.978;2024-03-22T00:00:06;17.57;;;9.37;;
7160;SDS011;3622;53.576;9.978;2024-03-22T00:02:36;18.73;;;9.77;;
7160;SDS011;3622;53.576;9.978;2024-03-22T00:05:02;17.20;;;9.90;;
7160;SDS011;3622;53.576;9.978;2024-03-22T00:07:28;24.40;;;10.80;;
7160;SDS011;3622;53.576;9.978;2024-03-22T00:09:54;17.27;;;10.40;;
7160;SDS011;3622;53.576;9.978;2024-03-22T00:12:20;16.60;;;9.63;;
7160;SDS011;3622;53.576;9.978;2024-03-22T00:14:45;17.37;;;10.17;;
7160;SDS011;3622;53.576;9.978;2024-03-22T00:17:12;16.67;;;9.77;;
7160;SDS011;3622;53.576;9.978;2024-03-22T00:19:38;17.93;;;9.83;;
7160;SDS011;3622;53.576;9.978;2024-03-22T00:22:03;16.53;;;9.13;;
7160;SDS011;3622;53.576;9.978;2024-03-22T00:24:29;15.70;;;9.30;;
7160;SDS011;3622;53.576;9.978;2024-03-22T00:26:55;16.77;;;10.13;;
7160;SDS011;3622;53.576;9.978;2024-03-22T00:29:21;22.90;;;10.07;;
7160;SDS011;3622;53.576;9.978;2024-03-22T00:31:47;15.43;;;9.13;;
7160;SDS011;3622;53.576;9.978;2024-03-22T00:34:13;19.43;;;9.80;;
7160;SDS011;3622;53.576;9.978;2024-03-22T00:36:39;18.97;;;10.43;;
7160;SDS011;3622;53.576;9.978;2024-03-22T00:39:05;17.90;;;9.90;;
7160;SDS011;3622;53.576;9.978;2024-03-22T00:41:31;19.03;;;9.90;;
7160;SDS011;3622;53.576;9.978;2024-03-22T00:43:58;19.00;;;10.03;;
7160;SDS011;3622;53.576;9.978;2024-03-22T00:46:24;16.43;;;9.30;;
7160;SDS011;3622;53.576;9.978;2024-03-22T00:48:50;21.47;;;10.70;;
7160;SDS011;3622;53.576;9.978;2024-03-22T00:51:16;18.53;;;9.13;;
7160;SDS011;3622;53.576;9.978;2024-03-22T00:53:41;13.87;;;9.23;;
7160;SDS011;3622;53.576;9.978;2024-03-22T00:56:07;15.77;;;9.40;;
7160;SDS011;3622;53.576;9.978;2024-03-22T00:58:33;21.23;;;10.57;;
7160;SDS011;3622;53.576;9.978;2024-03-22T01:00:59;20.13;;;10.83;;
7160;SDS011;3622;53.576;9.978;2024-03-22T01:03:25;21.33;;;10.90;;
7160;SDS011;3622;53.576;9.978;2024-03-22T01:05:51;22.00;;;9.43;;
7160;SDS011;3622;53.576;9.978;2024-03-22T01:08:17;20.20;;;10.73;;
7160;SDS011;3622;53.576;9.978;2024-03-22T01:10:43;19.80;;;10.27;;
7160;SDS011;3622;53.576;9.978;2024-03-22T01:13:09;20.40;;;10.33;;
7160;SDS011;3622;53.576;9.978;2024-03-22T01:15:35;24.30;;;11.37;;
7160;SDS011;3622;53.576;9.978;2024-03-22T01:18:01;21.40;;;11.10;;
7160;SDS011;3622;53.576;9.978;2024-03-22T01:20:27;29.53;;;11.07;;
7160;SDS011;3622;53.576;9.978;2024-03-22T01:22:53;19.30;;;10.57;;
7160;SDS011;3622;53.576;9.978;2024-03-22T01:25:19;20.17;;;11.10;;
7160;SDS011;3622;53.576;9.978;2024-03-22T01:27:45;22.63;;;11.07;;
7160;SDS011;3622;53.576;9.978;2024-03-22T01:30:11;20.70;;;10.80;;
7160;SDS011;3622;53.576;9.978;2024-03-22T01:32:37;25.83;;;11.07;;
7160;SDS011;3622;53.576;9.978;2024-03-22T01:35:03;20.60;;;12.00;;
7160;SDS011;3622;53.576;9.978;2024-03-22T01:37:29;21.70;;;10.87;;
7160;SDS011;3622;53.576;9.978;2024-03-22T01:39:55;22.63;;;11.57;;
7160;SDS011;3622;53.576;9.978;2024-03-22T01:42:21;25.77;;;11.90;;
7160;SDS011;3622;53.576;9.978;2024-03-22T01:44:48;25.47;;;11.70;;
7160;SDS011;3622;53.576;9.978;2024-03-22T01:47:15;24.27;;;12.07;;
7160;SDS011;3622;53.576;9.978;2024-03-22T01:49:41;23.17;;;11.93;;
7160;SDS011;3622;53.576;9.978;2024-03-22T01:52:07;23.27;;;12.10;;
7160;SDS011;3622;53.576;9.978;2024-03-22T01:54:33;26.10;;;11.47;;
7160;SDS011;3622;53.576;9.978;2024-03-22T01:56:59;24.80;;;11.80;;
7160;SDS011;3622;53.576;9.978;2024-03-22T01:59:26;27.70;;;12.60;;
7160;SDS011;3622;53.576;9.978;2024-03-22T02:01:54;25.13;;;12.50;;
7160;SDS011;3622;53.576;9.978;2024-03-22T02:04:20;21.10;;;12.20;;
7160;SDS011;3622;53.576;9.978;2024-03-22T02:06:46;23.33;;;12.63;;
7160;SDS011;3622;53.576;9.978;2024-03-22T02:09:12;24.13;;;13.37;;
7160;SDS011;3622;53.576;9.978;2024-03-22T02:11:38;23.03;;;12.60;;
7160;SDS011;3622;53.576;9.978;2024-03-22T02:14:05;21.80;;;13.10;;
7160;SDS011;3622;53.576;9.978;2024-03-22T02:16:31;23.37;;;13.20;;
7160;SDS011;3622;53.576;9.978;2024-03-22T02:18:57;24.97;;;14.30;;
7160;SDS011;3622;53.576;9.978;2024-03-22T02:21:23;25.73;;;12.80;;
7160;SDS011;3622;53.576;9.978;2024-03-22T02:23:49;28.87;;;13.13;;
7160;SDS011;3622;53.576;9.978;2024-03-22T02:26:14;26.60;;;14.13;;
7160;SDS011;3622;53.576;9.978;2024-03-22T02:28:40;22.87;;;12.67;;
7160;SDS011;3622;53.576;9.978;2024-03-22T02:31:06;27.33;;;14.20;;
7160;SDS011;3622;53.576;9.978;2024-03-22T02:33:32;30.93;;;13.40;;
7160;SDS011;3622;53.576;9.978;2024-03-22T02:35:58;25.87;;;14.17;;
7160;SDS011;3622;53.576;9.978;2024-03-22T02:38:24;29.10;;;15.10;;
7160;SDS011;3622;53.576;9.978;2024-03-22T02:40:51;27.50;;;13.93;;
7160;SDS011;3622;53.576;9.978;2024-03-22T02:43:17;26.17;;;12.97;;
7160;SDS011;3622;53.576;9.978;2024-03-22T02:45:44;27.73;;;14.27;;
7160;SDS011;3622;53.576;9.978;2024-03-22T02:48:09;31.27;;;13.73;;
7160;SDS011;3622;53.576;9.978;2024-03-22T02:50:36;29.23;;;15.47;;
7160;SDS011;3622;53.576;9.978;2024-03-22T02:53:02;29.30;;;13.90;;
7160;SDS011;3622;53.576;9.978;2024-03-22T02:55:28;29.23;;;14.13;;
7160;SDS011;3622;53.576;9.978;2024-03-22T02:57:55;30.73;;;15.73;;
7160;SDS011;3622;53.576;9.978;2024-03-22T03:00:22;32.43;;;15.80;;
7160;SDS011;3622;53.576;9.978;2024-03-22T03:02:48;27.70;;;15.40;;
7160;SDS011;3622;53.576;9.978;2024-03-22T03:05:14;30.10;;;15.13;;
7160;SDS011;3622;53.576;9.978;2024-03-22T03:07:40;29.70;;;15.93;;
7160;SDS011;3622;53.576;9.978;2024-03-22T03:10:06;32.23;;;15.60;;
7160;SDS011;3622;53.576;9.978;2024-03-22T03:12:32;32.27;;;16.47;;
7160;SDS011;3622;53.576;9.978;2024-03-22T03:14:58;31.93;;;16.20;;
7160;SDS011;3622;53.576;9.978;2024-03-22T03:17:24;36.10;;;16.53;;
7160;SDS011;3622;53.576;9.978;2024-03-22T03:19:50;37.03;;;16.40;;
7160;SDS011;3622;53.576;9.978;2024-03-22T03:22:16;32.00;;;16.50;;
7160;SDS011;3622;53.576;9.978;2024-03-22T03:24:43;38.63;;;17.47;;
7160;SDS011;3622;53.576;9.978;2024-03-22T03:27:09;36.20;;;17.43;;
7160;SDS011;3622;53.576;9.978;2024-03-22T03:29:35;34.67;;;17.03;;
7160;SDS011;3622;53.576;9.978;2024-03-22T03:32:00;38.10;;;18.40;;
7160;SDS011;3622;53.576;9.978;2024-03-22T03:34:26;39.33;;;18.90;;
7160;SDS011;3622;53.576;9.978;2024-03-22T03:36:52;33.97;;;16.87;;
7160;SDS011;3622;53.576;9.978;2024-03-22T03:39:18;32.40;;;16.60;;
7160;SDS011;3622;53.576;9.978;2024-03-22T03:41:44;32.63;;;17.67;;
7160;SDS011;3622;53.576;9.978;2024-03-22T03:44:10;35.87;;;18.37;;
7160;SDS011;3622;53.576;9.978;2024-03-22T03:46:36;33.83;;;17.27;;
7160;SDS011;3622;53.576;9.978;2024-03-22T03:49:02;37.93;;;17.57;;
7160;SDS011;3622;53.576;9.978;2024-03-22T03:51:28;35.50;;;17.70;;
7160;SDS011;3622;53.576;9.978;2024-03-22T03:53:54;38.33;;;19.60;;
7160;SDS011;3622;53.576;9.978;2024-03-22T03:56:20;40.57;;;20.60;;
7160;SDS011;3622;53.576;9.978;2024-03-22T03:58:46;47.13;;;20.97;;
7160;SDS011;3622;53.576;9.978;2024-03-22T04:01:12;40.70;;;19.13;;
7160;SDS011;3622;53.576;9.978;2024-03-22T04:03:38;42.60;;;20.30;;
7160;SDS011;3622;53.576;9.978;2024-03-22T04:06:04;43.83;;;21.20;;
7160;SDS011;3622;53.576;9.978;2024-03-22T04:08:30;46.07;;;22.10;;
7160;SDS011;3622;53.576;9.978;2024-03-22T04:10:57;40.50;;;20.53;;
7160;SDS011;3622;53.576;9.978;2024-03-22T04:13:23;42.87;;;20.60;;
7160;SDS011;3622;53.576;9.978;2024-03-22T04:15:49;42.03;;;19.80;;
7160;SDS011;3622;53.576;9.978;2024-03-22T04:18:15;38.23;;;19.63;;
7160;SDS011;3622;53.576;9.978;2024-03-22T04:20:41;42.60;;;19.70;;
7160;SDS011;3622;53.576;9.978;2024-03-22T04:23:08;44.73;;;20.80;;
7160;SDS011;3622;53.576;9.978;2024-03-22T04:25:34;48.87;;;21.47;;
7160;SDS011;3622;53.576;9.978;2024-03-22T04:28:00;49.17;;;23.00;;
7160;SDS011;3622;53.576;9.978;2024-03-22T04:30:26;45.23;;;21.63;;
7160;SDS011;3622;53.576;9.978;2024-03-22T04:32:52;43.03;;;21.27;;
7160;SDS011;3622;53.576;9.978;2024-03-22T04:35:18;46.07;;;22.30;;
7160;SDS011;3622;53.576;9.978;2024-03-22T04:37:44;46.50;;;22.50;;
7160;SDS011;3622;53.576;9.978;2024-03-22T04:40:10;45.83;;;21.67;;
7160;SDS011;3622;53.576;9.978;2024-03-22T04:42:36;43.83;;;21.20;;
7160;SDS011;3622;53.576;9.978;2024-03-22T04:45:02;44.93;;;21.17;;
7160;SDS011;3622;53.576;9.978;2024-03-22T04:47:28;45.03;;;21.73;;
7160;SDS011;3622;53.576;9.978;2024-03-22T04:49:54;42.10;;;22.37;;
7160;SDS011;3622;53.576;9.978;2024-03-22T04:52:20;44.50;;;20.57;;
7160;SDS011;3622;53.576;9.978;2024-03-22T04:54:46;41.50;;;21.50;;
7160;SDS011;3622;53.576;9.978;2024-03-22T04:57:12;44.37;;;21.50;;
7160;SDS011;3622;53.576;9.978;2024-03-22T04:59:38;45.73;;;22.27;;
7160;SDS011;3622;53.576;9.978;2024-03-22T05:02:04;51.90;;;20.87;;
7160;SDS011;3622;53.576;9.978;2024-03-22T05:04:30;48.40;;;22.27;;
7160;SDS011;3622;53.576;9.978;2024-03-22T05:06:56;49.57;;;22.57;;
7160;SDS011;3622;53.576;9.978;2024-03-22T05:09:22;49.37;;;23.37;;
7160;SDS011;3622;53.576;9.978;2024-03-22T05:11:48;49.23;;;22.27;;
7160;SDS011;3622;53.576;9.978;2024-03-22T05:14:15;44.83;;;21.80;;
7160;SDS011;3622;53.576;9.978;2024-03-22T05:16:41;50.27;;;21.97;;
7160;SDS011;3622;53.576;9.978;2024-03-22T05:19:07;46.53;;;22.63;;
7160;SDS011;3622;53.576;9.978;2024-03-22T05:21:33;45.47;;;22.03;;
7160;SDS011;3622;53.576;9.978;2024-03-22T05:23:59;45.50;;;21.77;;
7160;SDS011;3622;53.576;9.978;2024-03-22T05:26:25;48.60;;;21.77;;
7160;SDS011;3622;53.576;9.978;2024-03-22T05:28:51;44.90;;;21.00;;
7160;SDS011;3622;53.576;9.978;2024-03-22T05:31:17;49.90;;;23.87;;
7160;SDS011;3622;53.576;9.978;2024-03-22T05:33:43;48.20;;;22.00;;
7160;SDS011;3622;53.576;9.978;2024-03-22T05:36:09;53.20;;;23.43;;
7160;SDS011;3622;53.576;9.978;2024-03-22T05:38:35;45.80;;;21.10;;
7160;SDS011;3622;53.576;9.978;2024-03-22T05:41:04;53.90;;;23.07;;
7160;SDS011;3622;53.576;9.978;2024-03-22T05:43:30;49.53;;;22.50;;
7160;SDS011;3622;53.576;9.978;2024-03-22T05:45:56;49.50;;;23.03;;
7160;SDS011;3622;53.576;9.978;2024-03-22T05:48:22;48.53;;;22.40;;
7160;SDS011;3622;53.576;9.978;2024-03-22T05:50:48;54.30;;;23.20;;
7160;SDS011;3622;53.576;9.978;2024-03-22T05:53:14;50.00;;;22.67;;
7160;SDS011;3622;53.576;9.978;2024-03-22T05:55:40;52.67;;;23.20;;
7160;SDS011;3622;53.576;9.978;2024-03-22T05:58:06;50.30;;;22.00;;
7160;SDS011;3622;53.576;9.978;2024-03-22T06:00:32;53.17;;;22.70;;
7160;SDS011;3622;53.576;9.978;2024-03-22T06:02:58;50.90;;;23.80;;
7160;SDS011;3622;53.576;9.978;2024-03-22T06:05:24;49.77;;;23.27;;
7160;SDS011;3622;53.576;9.978;2024-03-22T06:07:50;51.40;;;23.03;;
7160;SDS011;3622;53.576;9.978;2024-03-22T06:10:16;54.73;;;23.23;;
7160;SDS011;3622;53.576;9.978;2024-03-22T06:12:42;51.70;;;23.47;;
7160;SDS011;3622;53.576;9.978;2024-03-22T06:15:09;46.67;;;23.00;;
7160;SDS011;3622;53.576;9.978;2024-03-22T06:17:35;55.20;;;23.90;;
7160;SDS011;3622;53.576;9.978;2024-03-22T06:20:01;52.83;;;23.20;;
7160;SDS011;3622;53.576;9.978;2024-03-22T06:22:29;53.00;;;23.47;;
7160;SDS011;3622;53.576;9.978;2024-03-22T06:24:55;51.10;;;23.13;;
7160;SDS011;3622;53.576;9.978;2024-03-22T06:27:21;50.00;;;23.37;;
7160;SDS011;3622;53.576;9.978;2024-03-22T06:29:47;56.57;;;25.30;;
7160;SDS011;3622;53.576;9.978;2024-03-22T06:32:13;57.17;;;24.20;;
7160;SDS011;3622;53.576;9.978;2024-03-22T06:34:39;53.83;;;23.40;;
7160;SDS011;3622;53.576;9.978;2024-03-22T06:37:05;51.77;;;23.87;;
7160;SDS011;3622;53.576;9.978;2024-03-22T06:39:31;49.00;;;23.50;;
7160;SDS011;3622;53.576;9.978;2024-03-22T06:41:57;60.80;;;25.67;;
7160;SDS011;3622;53.576;9.978;2024-03-22T06:44:23;53.60;;;25.20;;
7160;SDS011;3622;53.576;9.978;2024-03-22T06:46:49;50.70;;;24.57;;
7160;SDS011;3622;53.576;9.978;2024-03-22T06:49:15;57.13;;;24.87;;
7160;SDS011;3622;53.576;9.978;2024-03-22T06:51:41;53.53;;;25.10;;
7160;SDS011;3622;53.576;9.978;2024-03-22T06:54:07;50.03;;;24.70;;
7160;SDS011;3622;53.576;9.978;2024-03-22T06:56:33;55.10;;;24.90;;
7160;SDS011;3622;53.576;9.978;2024-03-22T06:58:59;55.97;;;26.67;;
7160;SDS011;3622;53.576;9.978;2024-03-22T07:01:25;51.10;;;24.13;;
7160;SDS011;3622;53.576;9.978;2024-03-22T07:03:51;58.40;;;25.50;;
7160;SDS011;3622;53.576;9.978;2024-03-22T07:06:17;57.07;;;23.93;;
7160;SDS011;3622;53.576;9.978;2024-03-22T07:08:43;58.50;;;25.60;;
7160;SDS011;3622;53.576;9.978;2024-03-22T07:11:09;52.40;;;24.70;;
7160;SDS011;3622;53.576;9.978;2024-03-22T07:13:35;47.47;;;24.87;;
7160;SDS011;3622;53.576;9.978;2024-03-22T07:16:02;52.17;;;24.33;;
7160;SDS011;3622;53.576;9.978;2024-03-22T07:18:28;55.47;;;24.40;;
7160;SDS011;3622;53.576;9.978;2024-03-22T07:20:54;51.47;;;24.90;;
7160;SDS011;3622;53.576;9.978;2024-03-22T07:23:22;62.00;;;26.63;;
7160;SDS011;3622;53.576;9.978;2024-03-22T07:25:48;56.90;;;26.30;;
7160;SDS011;3622;53.576;9.978;2024-03-22T07:28:14;58.80;;;25.40;;
7160;SDS011;3622;53.576;9.978;2024-03-22T07:30:41;56.73;;;25.80;;
7160;SDS011;3622;53.576;9.978;2024-03-22T07:33:07;62.67;;;26.73;;
7160;SDS011;3622;53.576;9.978;2024-03-22T07:35:36;53.57;;;25.90;;
7160;SDS011;3622;53.576;9.978;2024-03-22T07:38:02;59.10;;;26.23;;
7160;SDS011;3622;53.576;9.978;2024-03-22T07:40:29;59.00;;;25.90;;
7160;SDS011;3622;53.576;9.978;2024-03-22T07:42:55;54.47;;;25.20;;
7160;SDS011;3622;53.576;9.978;2024-03-22T07:45:21;58.73;;;26.40;;
7160;SDS011;3622;53.576;9.978;2024-03-22T07:47:47;59.53;;;25.27;;
7160;SDS011;3622;53.576;9.978;2024-03-22T07:50:13;63.73;;;26.03;;
7160;SDS011;3622;53.576;9.978;2024-03-22T07:52:40;57.13;;;25.90;;
7160;SDS011;3622;53.576;9.978;2024-03-22T07:55:06;61.00;;;28.30;;
7160;SDS011;3622;53.576;9.978;2024-03-22T07:57:32;56.53;;;27.53;;
7160;SDS011;3622;53.576;9.978;2024-03-22T07:59:58;59.00;;;26.47;;
7160;SDS011;3622;53.576;9.978;2024-03-22T08:02:24;60.13;;;28.07;;
7160;SDS011;3622;53.576;9.978;2024-03-22T08:04:50;67.80;;;28.27;;
7160;SDS011;3622;53.576;9.978;2024-03-22T08:07:16;55.17;;;25.87;;
7160;SDS011;3622;53.576;9.978;2024-03-22T08:09:42;61.97;;;26.67;;
7160;SDS011;3622;53.576;9.978;2024-03-22T08:12:08;60.23;;;27.00;;
7160;SDS011;3622;53.576;9.978;2024-03-22T08:14:34;58.60;;;26.97;;
7160;SDS011;3622;53.576;9.978;2024-03-22T08:17:00;59.87;;;26.07;;
7160;SDS011;3622;53.576;9.978;2024-03-22T08:19:26;69.47;;;28.73;;
7160;SDS011;3622;53.576;9.978;2024-03-22T08:21:53;62.40;;;27.57;;
7160;SDS011;3622;53.576;9.978;2024-03-22T08:24:19;59.80;;;26.90;;
7160;SDS011;3622;53.576;9.978;2024-03-22T08:26:44;61.67;;;27.23;;
7160;SDS011;3622;53.576;9.978;2024-03-22T08:29:12;60.40;;;26.77;;
7160;SDS011;3622;53.576;9.978;2024-03-22T08:31:39;66.67;;;27.73;;
7160;SDS011;3622;53.576;9.978;2024-03-22T08:34:05;56.20;;;25.47;;
7160;SDS011;3622;53.576;9.978;2024-03-22T08:36:31;57.80;;;26.80;;
7160;SDS011;3622;53.576;9.978;2024-03-22T08:38:57;67.63;;;28.27;;
7160;SDS011;3622;53.576;9.978;2024-03-22T08:41:23;62.90;;;28.30;;
7160;SDS011;3622;53.576;9.978;2024-03-22T08:43:49;64.20;;;28.87;;
7160;SDS011;3622;53.576;9.978;2024-03-22T08:46:15;62.43;;;27.20;;
7160;SDS011;3622;53.576;9.978;2024-03-22T08:48:41;64.30;;;28.57;;
7160;SDS011;3622;53.576;9.978;2024-03-22T08:51:07;57.70;;;27.27;;
7160;SDS011;3622;53.576;9.978;2024-03-22T08:53:33;63.43;;;28.50;;
7160;SDS011;3622;53.576;9.978;2024-03-22T08:55:59;63.50;;;28.10;;
7160;SDS011;3622;53.576;9.978;2024-03-22T08:58:25;69.13;;;29.30;;
7160;SDS011;3622;53.576;9.978;2024-03-22T09:00:50;65.13;;;28.10;;
7160;SDS011;3622;53.576;9.978;2024-03-22T09:03:17;58.57;;;26.37;;
7160;SDS011;3622;53.576;9.978;2024-03-22T09:05:43;61.67;;;27.60;;
7160;SDS011;3622;53.576;9.978;2024-03-22T09:08:09;64.63;;;29.33;;
7160;SDS011;3622;53.576;9.978;2024-03-22T09:10:35;67.63;;;28.50;;
7160;SDS011;3622;53.576;9.978;2024-03-22T09:13:01;68.83;;;29.57;;
7160;SDS011;3622;53.576;9.978;2024-03-22T09:15:27;67.03;;;29.40;;
7160;SDS011;3622;53.576;9.978;2024-03-22T09:17:53;66.97;;;28.83;;
7160;SDS011;3622;53.576;9.978;2024-03-22T09:20:19;63.97;;;27.60;;
7160;SDS011;3622;53.576;9.978;2024-03-22T09:22:45;73.50;;;29.60;;
7160;SDS011;3622;53.576;9.978;2024-03-22T09:25:11;70.87;;;28.10;;
7160;SDS011;3622;53.576;9.978;2024-03-22T09:27:37;76.33;;;29.77;;
7160;SDS011;3622;53.576;9.978;2024-03-22T09:30:03;63.90;;;27.30;;
7160;SDS011;3622;53.576;9.978;2024-03-22T09:32:29;64.37;;;27.73;;
7160;SDS011;3622;53.576;9.978;2024-03-22T09:34:56;64.57;;;28.17;;
7160;SDS011;3622;53.576;9.978;2024-03-22T09:37:22;61.67;;;25.43;;
7160;SDS011;3622;53.576;9.978;2024-03-22T09:39:48;70.40;;;26.90;;
7160;SDS011;3622;53.576;9.978;2024-03-22T09:42:16;60.43;;;26.67;;
7160;SDS011;3622;53.576;9.978;2024-03-22T09:44:48;56.63;;;24.80;;
7160;SDS011;3622;53.576;9.978;2024-03-22T09:47:15;58.63;;;24.40;;
7160;SDS011;3622;53.576;9.978;2024-03-22T09:49:42;51.33;;;23.77;;
7160;SDS011;3622;53.576;9.978;2024-03-22T09:52:14;59.53;;;24.87;;
7160;SDS011;3622;53.576;9.978;2024-03-22T09:54:42;55.20;;;23.60;;
7160;SDS011;3622;53.576;9.978;2024-03-22T09:57:09;60.60;;;24.73;;
7160;SDS011;3622;53.576;9.978;2024-03-22T09:59:37;49.23;;;24.00;;
7160;SDS011;3622;53.576;9.978;2024-03-22T10:02:03;55.87;;;22.50;;
7160;SDS011;3622;53.576;9.978;2024-03-22T10:04:29;51.20;;;23.27;;
7160;SDS011;3622;53.576;9.978;2024-03-22T10:06:55;50.20;;;23.87;;
7160;SDS011;3622;53.576;9.978;2024-03-22T10:09:28;51.23;;;24.73;;
7160;SDS011;3622;53.576;9.978;2024-03-22T10:11:55;57.83;;;24.73;;
7160;SDS011;3622;53.576;9.978;2024-03-22T10:14:21;52.00;;;23.20;;
7160;SDS011;3622;53.576;9.978;2024-03-22T10:16:50;58.97;;;25.17;;
7160;SDS011;3622;53.576;9.978;2024-03-22T10:19:18;55.67;;;23.73;;
7160;SDS011;3622;53.576;9.978;2024-03-22T10:21:44;51.03;;;24.20;;
7160;SDS011;3622;53.576;9.978;2024-03-22T10:24:10;60.43;;;24.30;;
7160;SDS011;3622;53.576;9.978;2024-03-22T10:26:36;42.63;;;22.00;;
7160;SDS011;3622;53.576;9.978;2024-03-22T10:29:05;47.07;;;21.03;;
7160;SDS011;3622;53.576;9.978;2024-03-22T10:31:31;43.80;;;21.43;;
7160;SDS011;3622;53.576;9.978;2024-03-22T10:33:57;44.20;;;20.90;;
7160;SDS011;3622;53.576;9.978;2024-03-22T10:36:24;44.97;;;20.50;;
7160;SDS011;3622;53.576;9.978;2024-03-22T10:38:51;41.13;;;19.57;;
7160;SDS011;3622;53.576;9.978;2024-03-22T10:41:19;35.93;;;17.77;;
7160;SDS011;3622;53.576;9.978;2024-03-22T10:43:45;36.00;;;16.53;;
7160;SDS011;3622;53.576;9.978;2024-03-22T10:46:11;36.07;;;16.87;;
7160;SDS011;3622;53.576;9.978;2024-03-22T10:48:37;31.67;;;15.93;;
7160;SDS011;3622;53.576;9.978;2024-03-22T10:51:03;30.57;;;15.00;;
7160;SDS011;3622;53.576;9.978;2024-03-22T10:53:30;27.50;;;14.20;;
7160;SDS011;3622;53.576;9.978;2024-03-22T10:55:57;27.93;;;13.97;;
7160;SDS011;3622;53.576;9.978;2024-03-22T10:58:26;25.87;;;12.10;;
7160;SDS011;3622;53.576;9.978;2024-03-22T11:00:52;26.53;;;12.20;;
7160;SDS011;3622;53.576;9.978;2024-03-22T11:03:25;23.37;;;11.33;;
7160;SDS011;3622;53.576;9.978;2024-03-22T11:05:55;20.67;;;10.90;;
7160;SDS011;3622;53.576;9.978;2024-03-22T11:08:27;20.67;;;10.23;;
7160;SDS011;3622;53.576;9.978;2024-03-22T11:10:54;21.47;;;10.73;;
7160;SDS011;3622;53.576;9.978;2024-03-22T11:13:20;19.40;;;11.30;;
7160;SDS011;3622;53.576;9.978;2024-03-22T11:15:47;17.40;;;10.10;;
7160;SDS011;3622;53.576;9.978;2024-03-22T11:18:13;16.27;;;9.87;;
7160;SDS011;3622;53.576;9.978;2024-03-22T11:20:40;16.27;;;10.20;;
7160;SDS011;3622;53.576;9.978;2024-03-22T11:23:06;19.00;;;9.60;;
7160;SDS011;3622;53.576;9.978;2024-03-22T11:25:33;15.97;;;9.13;;
7160;SDS011;3622;53.576;9.978;2024-03-22T11:27:59;15.70;;;9.40;;
7160;SDS011;3622;53.576;9.978;2024-03-22T11:30:27;17.10;;;8.63;;
7160;SDS011;3622;53.576;9.978;2024-03-22T11:32:54;17.87;;;9.40;;
7160;SDS011;3622;53.576;9.978;2024-03-22T11:35:20;16.30;;;8.33;;
7160;SDS011;3622;53.576;9.978;2024-03-22T11:37:46;12.50;;;8.33;;
7160;SDS011;3622;53.576;9.978;2024-03-22T11:40:12;13.40;;;7.90;;
7160;SDS011;3622;53.576;9.978;2024-03-22T11:42:41;13.67;;;8.20;;
7160;SDS011;3622;53.576;9.978;2024-03-22T11:45:10;14.50;;;8.50;;
7160;SDS011;3622;53.576;9.978;2024-03-22T11:47:38;12.67;;;7.87;;
7160;SDS011;3622;53.576;9.978;2024-03-22T11:50:04;15.97;;;10.17;;
7160;SDS011;3622;53.576;9.978;2024-03-22T11:52:30;12.13;;;8.40;;
7160;SDS011;3622;53.576;9.978;2024-03-22T11:54:56;13.23;;;9.00;;
7160;SDS011;3622;53.576;9.978;2024-03-22T11:57:23;13.77;;;8.87;;
7160;SDS011;3622;53.576;9.978;2024-03-22T11:59:49;12.20;;;7.60;;
7160;SDS011;3622;53.576;9.978;2024-03-22T12:02:16;13.00;;;8.13;;
7160;SDS011;3622;53.576;9.978;2024-03-22T12:04:42;14.03;;;9.37;;
7160;SDS011;3622;53.576;9.978;2024-03-22T12:07:10;16.77;;;9.47;;
7160;SDS011;3622;53.576;9.978;2024-03-22T12:09:36;16.60;;;9.53;;
7160;SDS011;3622;53.576;9.978;2024-03-22T12:12:03;15.57;;;9.50;;
7160;SDS011;3622;53.576;9.978;2024-03-22T12:14:29;16.50;;;9.33;;
7160;SDS011;3622;53.576;9.978;2024-03-22T12:16:56;15.37;;;8.37;;
7160;SDS011;3622;53.576;9.978;2024-03-22T12:19:22;21.13;;;9.53;;
7160;SDS011;3622;53.576;9.978;2024-03-22T12:21:48;13.50;;;9.10;;
7160;SDS011;3622;53.576;9.978;2024-03-22T12:24:14;14.83;;;8.27;;
7160;SDS011;3622;53.576;9.978;2024-03-22T12:26:39;17.13;;;8.83;;
7160;SDS011;3622;53.576;9.978;2024-03-22T12:29:05;18.40;;;9.27;;
7160;SDS011;3622;53.576;9.978;2024-03-22T12:31:32;15.37;;;7.80;;
7160;SDS011;3622;53.576;9.978;2024-03-22T12:33:58;15.70;;;8.47;;
7160;SDS011;3622;53.576;9.978;2024-03-22T12:36:24;14.43;;;8.73;;
7160;SDS011;3622;53.576;9.978;2024-03-22T12:38:50;13.93;;;8.53;;
7160;SDS011;3622;53.576;9.978;2024-03-22T12:41:16;14.90;;;8.30;;
7160;SDS011;3622;53.576;9.978;2024-03-22T12:43:42;18.33;;;8.40;;
7160;SDS011;3622;53.576;9.978;2024-03-22T12:46:08;13.70;;;8.10;;
7160;SDS011;3622;53.576;9.978;2024-03-22T12:48:34;12.83;;;7.90;;
7160;SDS011;3622;53.576;9.978;2024-03-22T12:51:01;13.40;;;8.20;;
7160;SDS011;3622;53.576;9.978;2024-03-22T12:53:27;13.20;;;8.63;;
7160;SDS011;3622;53.576;9.978;2024-03-22T12:55:53;6.17;;;5.57;;
7160;SDS011;3622;53.576;9.978;2024-03-22T12:58:19;8.07;;;5.20;;
7160;SDS011;3622;53.576;9.978;2024-03-22T13:00:45;4.57;;;4.13;;
7160;SDS011;3622;53.576;9.978;2024-03-22T13:03:11;5.63;;;4.90;;
7160;SDS011;3622;53.576;9.978;2024-03-22T13:05:38;3.80;;;3.50;;
7160;SDS011;3622;53.576;9.978;2024-03-22T13:08:04;4.10;;;3.70;;
7160;SDS011;3622;53.576;9.978;2024-03-22T13:10:30;4.17;;;3.80;;
7160;SDS011;3622;53.576;9.978;2024-03-22T13:12:56;4.27;;;3.93;;
7160;SDS011;3622;53.576;9.978;2024-03-22T13:15:22;3.80;;;3.40;;
7160;SDS011;3622;53.576;9.978;2024-03-22T13:17:49;2.80;;;2.60;;
7160;SDS011;3622;53.576;9.978;2024-03-22T13:20:15;2.60;;;2.40;;
7160;SDS011;3622;53.576;9.978;2024-03-22T13:22:43;2.67;;;2.50;;
7160;SDS011;3622;53.576;9.978;2024-03-22T13:25:09;2.57;;;2.43;;
7160;SDS011;3622;53.576;9.978;2024-03-22T13:27:36;2.40;;;2.30;;
7160;SDS011;3622;53.576;9.978;2024-03-22T13:30:08;34.60;;;5.73;;
7160;SDS011;3622;53.576;9.978;2024-03-22T13:32:37;3.60;;;2.60;;
7160;SDS011;3622;53.576;9.978;2024-03-22T13:35:03;95.70;;;9.17;;
7160;SDS011;3622;53.576;9.978;2024-03-22T13:37:30;2.50;;;2.30;;
7160;SDS011;3622;53.576;9.978;2024-03-22T13:39:56;3.03;;;2.83;;
7160;SDS011;3622;53.576;9.978;2024-03-22T13:42:22;2.40;;;2.30;;
7160;SDS011;3622;53.576;9.978;2024-03-22T13:44:48;2.50;;;2.40;;
7160;SDS011;3622;53.576;9.978;2024-03-22T13:47:14;3.17;;;2.70;;
7160;SDS011;3622;53.576;9.978;2024-03-22T13:49:40;6.30;;;3.23;;
7160;SDS011;3622;53.576;9.978;2024-03-22T13:52:07;2.97;;;2.77;;
7160;SDS011;3622;53.576;9.978;2024-03-22T13:54:34;7.80;;;2.83;;
7160;SDS011;3622;53.576;9.978;2024-03-22T13:57:00;2.40;;;2.30;;
7160;SDS011;3622;53.576;9.978;2024-03-22T13:59:26;2.13;;;2.03;;
7160;SDS011;3622;53.576;9.978;2024-03-22T14:01:52;2.43;;;2.30;;
7160;SDS011;3622;53.576;9.978;2024-03-22T14:04:18;2.10;;;2.00;;
7160;SDS011;3622;53.576;9.978;2024-03-22T14:06:44;3.93;;;2.93;;
7160;SDS011;3622;53.576;9.978;2024-03-22T14:09:11;2.30;;;2.13;;
7160;SDS011;3622;53.576;9.978;2024-03-22T14:11:38;3.30;;;2.53;;
7160;SDS011;3622;53.576;9.978;2024-03-22T14:14:04;1.93;;;1.83;;
7160;SDS011;3622;53.576;9.978;2024-03-22T14:16:30;2.67;;;2.00;;
7160;SDS011;3622;53.576;9.978;2024-03-22T14:18:56;4.80;;;2.57;;
7160;SDS011;3622;53.576;9.978;2024-03-22T14:21:22;2.37;;;2.27;;
7160;SDS011;3622;53.576;9.978;2024-03-22T14:23:50;4.30;;;2.80;;
7160;SDS011;3622;53.576;9.978;2024-03-22T14:26:17;5.90;;;3.00;;
7160;SDS011;3622;53.576;9.978;2024-03-22T14:28:43;2.03;;;1.73;;
7160;SDS011;3622;53.576;9.978;2024-03-22T14:31:09;3.70;;;1.53;;
7160;SDS011;3622;53.576;9.978;2024-03-22T14:33:35;1.80;;;1.70;;
7160;SDS011;3622;53.576;9.978;2024-03-22T14:36:02;2.07;;;1.97;;
7160;SDS011;3622;53.576;9.978;2024-03-22T14:38:28;3.10;;;2.63;;
7160;SDS011;3622;53.576;9.978;2024-03-22T14:40:54;3.30;;;1.70;;
7160;SDS011;3622;53.576;9.978;2024-03-22T14:43:21;6.00;;;3.30;;
7160;SDS011;3622;53.576;9.978;2024-03-22T14:45:47;4.33;;;2.43;;